createdAt,value
2022-08-18T00:01:05.818Z,1.58
2022-08-18T00:06:08.845Z,1.25
2022-08-18T00:11:11.451Z,1.95
2022-08-18T00:16:14.669Z,2.40
2022-08-18T00:21:19.512Z,2.00
2022-08-18T00:26:21.928Z,2.58
2022-08-18T00:31:44.511Z,2.70
2022-08-18T00:36:49.544Z,2.60
2022-08-18T00:42:28.985Z,2.30
2022-08-18T00:47:42.269Z,1.77
2022-08-18T00:52:50.232Z,2.33
2022-08-18T00:57:55.905Z,2.60
2022-08-18T01:03:04.292Z,2.25
2022-08-18T01:08:08.879Z,2.08
2022-08-18T01:13:11.583Z,2.42
2022-08-18T01:18:15.012Z,1.88
2022-08-18T01:23:39.224Z,2.13
2022-08-18T01:28:44.701Z,2.00
2022-08-18T01:33:50.711Z,1.98
2022-08-18T01:38:58.221Z,2.33
2022-08-18T01:44:26.282Z,2.13
2022-08-18T01:49:37.445Z,2.15
2022-08-18T01:55:14.818Z,2.30
2022-08-18T02:11:56.661Z,1.95
2022-08-18T02:17:18.045Z,2.30
2022-08-18T02:22:56.637Z,2.42
2022-08-18T02:34:23.922Z,1.98
2022-08-18T02:45:16.335Z,2.55
2022-08-18T02:50:40.315Z,3.78
2022-08-18T02:55:49.508Z,3.55
2022-08-18T03:01:13.184Z,3.45
2022-08-18T03:06:47.574Z,3.47
2022-08-18T03:18:07.355Z,3.33
2022-08-18T03:29:34.377Z,3.67
2022-08-18T03:35:11.253Z,3.50
2022-08-18T03:40:58.673Z,4.20
2022-08-18T03:52:16.853Z,4.80
2022-08-18T03:57:55.533Z,4.97
2022-08-18T04:03:15.793Z,3.97
2022-08-18T04:14:51.262Z,5.88
2022-08-18T04:20:59.934Z,4.80
2022-08-18T04:26:25.963Z,5.43
2022-08-18T04:31:42.598Z,4.07
2022-08-18T04:37:32.415Z,4.93
2022-08-18T04:43:17.737Z,4.68
2022-08-18T04:54:36.955Z,4.25
2022-08-18T05:00:23.701Z,4.75
2022-08-18T06:24:56.295Z,5.00
2022-08-18T06:30:17.167Z,4.90
2022-08-18T06:35:45.149Z,4.80
2022-08-18T06:40:50.035Z,4.72
2022-08-18T06:45:52.695Z,4.72
2022-08-18T06:51:18.114Z,4.88
2022-08-18T06:56:38.862Z,5.05
2022-08-18T07:01:41.338Z,5.10
2022-08-18T07:06:43.894Z,5.35
2022-08-18T07:12:07.895Z,5.10
2022-08-18T07:17:20.444Z,6.00
2022-08-18T07:22:59.862Z,5.25
2022-08-18T07:28:40.916Z,4.80
2022-08-18T07:33:53.634Z,6.00
2022-08-18T07:39:38.161Z,5.03
2022-08-18T07:45:17.903Z,4.25
2022-08-18T07:50:58.549Z,4.47
2022-08-18T07:56:13.622Z,4.50
2022-08-18T08:01:24.885Z,5.13
2022-08-18T08:07:12.839Z,3.05
2022-08-18T08:12:41.966Z,3.38
2022-08-18T08:17:48.748Z,3.85
2022-08-18T08:23:32.114Z,3.42
2022-08-18T08:29:16.875Z,3.35
2022-08-18T08:34:52.537Z,3.90
2022-08-18T08:40:00.806Z,3.53
2022-08-18T08:45:10.752Z,3.63
2022-08-18T08:50:25.555Z,3.75
2022-08-18T08:55:35.894Z,3.40
2022-08-18T09:00:40.321Z,3.72
2022-08-18T09:05:57.205Z,3.95
2022-08-18T09:11:02.674Z,3.03
2022-08-18T09:17:00.926Z,3.28
2022-08-18T09:22:54.482Z,2.30
2022-08-18T09:28:23.675Z,3.20
2022-08-18T09:34:29.356Z,2.65
2022-08-18T09:39:39.183Z,2.28
2022-08-18T09:50:27.147Z,4.03
2022-08-18T09:56:01.333Z,3.42
2022-08-18T10:01:36.102Z,3.85
2022-08-18T10:06:39.755Z,3.83
2022-08-18T10:17:53.542Z,3.80
2022-08-18T10:29:41.583Z,3.47
2022-08-18T10:34:52.569Z,2.88
2022-08-18T10:40:21.376Z,2.90
2022-08-18T10:45:34.966Z,3.20
2022-08-18T10:51:14.666Z,3.75
2022-08-18T10:57:09.029Z,3.30
2022-08-18T11:02:23.666Z,3.08
2022-08-18T11:07:59.005Z,2.80
2022-08-18T11:13:15.525Z,2.92
2022-08-18T11:18:43.311Z,3.33
2022-08-18T11:24:08.142Z,3.97
2022-08-18T11:29:42.479Z,3.85
2022-08-18T11:35:11.175Z,3.15
2022-08-18T11:41:02.053Z,4.00
2022-08-18T11:45:44.920Z,3.85
2022-08-18T11:56:05.358Z,4.30
2022-08-18T12:01:41.547Z,3.47
2022-08-18T12:06:56.150Z,3.75
2022-08-18T12:12:38.689Z,4.22
2022-08-18T12:17:42.560Z,3.88
2022-08-18T12:22:57.084Z,4.20
2022-08-18T12:28:22.189Z,3.95
2022-08-18T12:33:25.655Z,3.50
2022-08-18T12:38:36.882Z,2.97
2022-08-18T12:44:02.660Z,3.45
2022-08-18T12:49:25.280Z,3.20
2022-08-18T12:54:55.380Z,3.20
2022-08-18T13:00:18.931Z,3.03
2022-08-18T13:05:40.889Z,3.40
2022-08-18T13:10:46.838Z,3.70
2022-08-18T13:15:57.728Z,3.85
2022-08-18T13:21:04.607Z,3.80
2022-08-18T13:26:17.254Z,3.30
2022-08-18T13:31:39.547Z,3.95
2022-08-18T13:36:42.153Z,4.28
2022-08-18T13:41:49.000Z,4.32
2022-08-18T13:46:51.922Z,3.60
2022-08-18T13:52:33.112Z,4.20
2022-08-18T13:57:37.754Z,3.65
2022-08-18T14:02:41.538Z,4.15
2022-08-18T14:07:45.980Z,3.78
2022-08-18T14:12:49.717Z,3.88
2022-08-18T14:17:56.375Z,3.83
2022-08-18T14:23:05.856Z,3.83
2022-08-18T14:28:11.999Z,3.05
2022-08-18T14:33:21.216Z,4.03
2022-08-18T14:38:44.479Z,3.80
2022-08-18T14:44:11.455Z,3.75
2022-08-18T14:49:11.874Z,3.80
2022-08-18T14:54:17.983Z,4.25
2022-08-18T14:59:21.993Z,4.00
2022-08-18T15:04:57.904Z,3.60
2022-08-18T15:10:28.178Z,3.67
2022-08-18T15:15:50.639Z,4.30
2022-08-18T15:20:54.629Z,4.78
2022-08-18T15:25:58.885Z,4.35
2022-08-18T15:31:17.446Z,5.65
2022-08-18T15:41:47.484Z,5.50
2022-08-18T15:46:53.459Z,5.03
2022-08-18T15:51:57.298Z,4.30
2022-08-18T15:57:02.160Z,4.47
2022-08-18T16:02:11.773Z,4.38
2022-08-18T16:07:41.119Z,4.32
2022-08-18T16:18:53.778Z,4.47
2022-08-18T16:24:18.579Z,3.63
2022-08-18T16:29:25.724Z,4.33
2022-08-18T16:34:39.299Z,4.10
2022-08-18T16:39:46.098Z,3.40
2022-08-18T16:44:49.591Z,4.35
2022-08-18T16:49:56.855Z,4.10
2022-08-18T16:55:01.657Z,4.30
2022-08-18T17:00:06.689Z,4.28
2022-08-18T17:05:10.217Z,3.90
2022-08-18T17:15:59.530Z,4.18
2022-08-18T17:27:26.535Z,4.70
2022-08-18T17:33:00.562Z,4.05
2022-08-18T17:38:57.876Z,3.33
2022-08-18T17:44:19.108Z,5.32
2022-08-18T17:49:39.685Z,4.05
2022-08-18T17:55:09.627Z,4.40
2022-08-18T18:00:16.792Z,3.88
2022-08-18T18:05:23.759Z,3.97
2022-08-18T18:10:51.018Z,3.83
2022-08-18T18:16:04.360Z,4.72
2022-08-18T18:21:53.481Z,4.00
2022-08-18T18:26:52.722Z,4.55
2022-08-18T18:32:02.251Z,4.43
2022-08-18T18:37:32.449Z,4.43
2022-08-18T18:42:37.350Z,4.30
2022-08-18T18:48:04.224Z,4.70
2022-08-18T18:53:45.757Z,4.60
2022-08-18T19:04:47.966Z,4.68
2022-08-18T19:10:46.788Z,4.70
2022-08-18T19:15:59.370Z,4.97
2022-08-18T19:27:10.468Z,3.72
2022-08-18T19:32:27.110Z,4.88
2022-08-18T19:38:01.945Z,4.43
2022-08-18T19:43:15.851Z,4.68
2022-08-18T19:48:56.129Z,4.05
2022-08-18T19:54:38.811Z,4.18
2022-08-18T20:00:16.370Z,3.55
2022-08-18T20:05:42.773Z,3.70
2022-08-18T20:11:14.386Z,3.90
2022-08-18T20:16:43.781Z,4.10
2022-08-18T20:22:30.596Z,3.58
2022-08-18T20:27:46.587Z,4.17
2022-08-18T20:33:08.407Z,4.72
2022-08-18T20:38:35.693Z,4.88
2022-08-18T20:43:40.827Z,5.25
2022-08-18T20:48:46.281Z,5.78
2022-08-18T20:54:13.442Z,4.30
2022-08-18T20:59:55.715Z,5.03
2022-08-18T21:05:00.776Z,5.30
2022-08-18T21:10:21.193Z,4.03
2022-08-18T21:15:28.647Z,4.85
2022-08-18T21:20:35.724Z,5.03
2022-08-18T21:26:09.006Z,4.53
2022-08-18T21:31:44.110Z,5.82
2022-08-18T21:36:54.125Z,5.40
2022-08-18T21:41:58.745Z,4.28
2022-08-18T21:47:18.257Z,4.40
2022-08-18T21:52:26.389Z,4.85
2022-08-18T21:57:52.106Z,5.72
2022-08-18T22:03:42.235Z,4.82
2022-08-18T22:09:05.854Z,5.68
2022-08-18T22:14:19.924Z,5.93
2022-08-18T22:19:26.064Z,5.07
2022-08-18T22:24:39.173Z,5.15
2022-08-18T22:29:50.581Z,5.53
2022-08-18T22:35:15.549Z,6.05
2022-08-18T22:40:21.762Z,5.88
2022-08-18T22:45:25.730Z,6.05
2022-08-18T22:50:28.166Z,6.10
2022-08-18T22:55:30.770Z,7.03
2022-08-18T23:00:35.362Z,5.60
2022-08-18T23:05:56.871Z,6.00
2022-08-18T23:10:59.183Z,6.88
2022-08-18T23:16:12.399Z,6.53
2022-08-18T23:21:53.002Z,6.45
2022-08-18T23:26:57.109Z,6.68
2022-08-18T23:32:21.025Z,5.93
2022-08-18T23:37:52.764Z,6.10
2022-08-18T23:42:55.162Z,6.90
2022-08-18T23:47:57.665Z,7.13
2022-08-18T23:53:02.181Z,7.15
2022-08-18T23:58:08.422Z,7.03
